Time;durP1;ratioP1;P1;durP2;ratioP2;P2;SDS_P1;SDS_P2;PMS_P1;PMS_P2;Temp;Humidity;BMP_temperature;BMP_pressure;BME280_temperature;BME280_humidity;BME280_pressure;Samples;Min_cycle;Max_cycle;Signal;HPM_P1;HPM_P2
2022/08/17 00:00:59;;;;;;;;;;;;;;;26.28;43.32;99873.50;4987665;28;6808;-73
2022/08/17 00:03:28;;;;;;;;;;;;;;;26.26;43.33;99863.94;4970230;28;6998;-73
2022/08/17 00:06:10;;;;;;;;;;;;;;;26.23;43.34;99866.66;4983303;28;7411;-73
2022/08/17 00:09:02;;;;;;;;;;;;;;;26.16;43.56;99865.91;4988159;28;6808;-73
2022/08/17 00:11:37;;;;;;;;;;;;;;;26.09;43.30;99867.84;5016947;28;6808;-73
2022/08/17 00:14:11;;;;;;;;;;;;;;;26.00;43.46;99853.16;4987198;28;6804;-73
2022/08/17 00:16:50;;;;;;;;;;;;;;;25.93;43.36;99852.47;4987022;28;7065;-73
2022/08/17 00:19:22;;;;;;;;;;;;;;;25.85;43.79;99851.78;4982944;28;6968;-73
2022/08/17 00:21:51;;;;;;;;;;;;;;;25.77;43.53;99846.72;4983762;28;6872;-74
2022/08/17 00:24:17;;;;;;;;;;;;;;;25.70;44.32;99844.28;4974969;28;6824;-74
2022/08/17 00:26:44;;;;;;;;;;;;;;;25.66;44.59;99854.00;5017261;28;6792;-74
2022/08/17 00:29:09;;;;;;;;;;;;;;;25.60;44.81;99843.63;4982816;28;8113;-74
2022/08/17 00:31:36;;;;;;;;;;;;;;;25.57;44.70;99843.72;4984103;28;6794;-74
2022/08/17 00:34:05;;;;;;;;;;;;;;;25.52;45.14;99844.66;4975185;28;6951;-73
2022/08/17 00:36:31;;;;;;;;;;;;;;;25.46;44.53;99830.81;4974946;28;6944;-73
2022/08/17 00:38:57;;;;;;;;;;;;;;;25.42;44.79;99830.00;4977699;28;7058;-74
2022/08/17 00:41:26;;;;;;;;;;;;;;;25.39;45.02;99824.84;5018192;28;6936;-74
2022/08/17 00:43:58;;;;;;;;;;;;;;;25.36;44.52;99825.75;4977988;28;6946;-74
2022/08/17 00:46:38;;;;;;;;;;;;;;;25.34;44.89;99822.31;5013123;28;6792;-74
2022/08/17 00:49:05;;;;;;;;;;;;;;;25.32;44.92;99824.13;4984824;28;6864;-74
2022/08/17 00:51:47;;;;;;;;;;;;;;;25.31;44.72;99819.78;4998697;28;7047;-74
2022/08/17 00:54:30;;;;;;;;;;;;;;;25.29;45.02;99818.91;5009744;28;7407;-74
2022/08/17 00:57:05;;;;;;;;;;;;;;;25.29;44.51;99829.41;4975421;28;6987;-74
2022/08/17 00:59:39;;;;;;;;;;;;;;;25.29;45.13;99818.91;4977576;28;7364;-74
2022/08/17 01:02:11;;;;;;;;;;;;;;;25.29;44.45;99829.41;4997939;28;7184;-73
2022/08/17 01:04:37;;;;;;;;;;;;;;;25.28;44.55;99819.81;4983125;28;7018;-73
2022/08/17 01:07:05;;;;;;;;;;;;;;;25.25;44.51;99817.28;5000601;28;7280;-73
2022/08/17 01:09:32;;;;;;;;;;;;;;;25.20;44.36;99816.50;4982851;28;7165;-74
2022/08/17 01:11:58;;;;;;;;;;;;;;;25.13;44.35;99817.56;5002445;28;7157;-74
2022/08/17 01:14:25;;;;;;;;;;;;;;;25.05;44.95;99820.31;4978874;28;7154;-74
2022/08/17 01:16:54;;;;;;;;;;;;;;;24.97;45.20;99815.25;5012781;28;6772;-74
2022/08/17 01:19:31;;;;;;;;;;;;;;;24.90;45.21;99821.50;5013622;28;6788;-74
2022/08/17 01:22:15;;;;;;;;;;;;;;;24.82;45.30;99813.81;5001127;28;6835;-74
2022/08/17 01:24:48;;;;;;;;;;;;;;;24.72;45.00;99820.09;4982615;28;7196;-74
2022/08/17 01:27:16;;;;;;;;;;;;;;;24.67;45.29;99814.94;5016981;28;6986;-73
2022/08/17 01:29:46;;;;;;;;;;;;;;;24.58;45.56;99815.13;4977375;28;7714;-73
2022/08/17 01:32:12;;;;;;;;;;;;;;;24.52;45.84;99816.97;5012126;28;7308;-73
2022/08/17 01:34:38;;;;;;;;;;;;;;;24.46;45.62;99817.09;5016787;28;6990;-73
2022/08/17 01:37:04;;;;;;;;;;;;;;;24.41;45.75;99808.44;4984599;28;7368;-73
2022/08/17 01:39:41;;;;;;;;;;;;;;;24.37;45.65;99817.28;5002221;28;7250;-74
2022/08/17 01:42:39;;;;;;;;;;;;;;;24.32;45.72;99817.34;4982226;28;6816;-73
2022/08/17 01:45:17;;;;;;;;;;;;;;;24.29;45.73;99816.53;4972255;28;7894;-73
2022/08/17 01:47:44;;;;;;;;;;;;;;;24.26;46.14;99820.06;4979083;28;6951;-73
2022/08/17 01:50:22;;;;;;;;;;;;;;;24.24;46.19;99822.75;4979299;28;7765;-73
2022/08/17 01:52:56;;;;;;;;;;;;;;;24.24;46.03;99820.13;4984285;28;7072;-74
2022/08/17 01:55:32;;;;;;;;;;;;;;;24.24;46.07;99822.75;4962033;28;7022;-73
2022/08/17 01:57:58;;;;;;;;;;;;;;;24.24;46.32;99822.75;5010181;28;6875;-74
2022/08/17 02:00:24;;;;;;;;;;;;;;;24.24;46.34;99825.34;5009615;28;6780;-74
2022/08/17 02:02:50;;;;;;;;;;;;;;;24.24;46.20;99817.50;5012625;28;6796;-73
2022/08/17 02:05:16;;;;;;;;;;;;;;;24.25;45.98;99819.22;4991228;28;6990;-73
2022/08/17 02:07:42;;;;;;;;;;;;;;;24.27;46.10;99821.78;5017401;28;6907;-73
2022/08/17 02:10:08;;;;;;;;;;;;;;;24.29;46.15;99816.53;4980644;28;7009;-73
2022/08/17 02:12:36;;;;;;;;;;;;;;;24.32;46.42;99812.13;4998957;28;6941;-73
2022/08/17 02:15:05;;;;;;;;;;;;;;;24.37;46.27;99806.78;4981547;28;7083;-73
2022/08/17 02:17:31;;;;;;;;;;;;;;;24.40;46.51;99801.50;5011701;28;6991;-73
2022/08/17 02:19:57;;;;;;;;;;;;;;;24.45;45.68;99796.16;5010883;28;7373;-73
2022/08/17 02:22:24;;;;;;;;;;;;;;;24.50;46.04;99797.81;5014478;28;7268;-73
2022/08/17 02:24:54;;;;;;;;;;;;;;;24.55;45.49;99797.72;4982841;28;6808;-73
2022/08/17 02:27:20;;;;;;;;;;;;;;;24.60;45.88;99797.63;5013897;28;6796;-73
2022/08/17 02:29:45;;;;;;;;;;;;;;;24.62;45.22;99798.44;4979261;28;6772;-73
2022/08/17 02:32:21;;;;;;;;;;;;;;;24.66;45.64;99797.50;5011778;28;8009;-73
2022/08/17 02:34:47;;;;;;;;;;;;;;;24.70;45.85;99799.16;5007212;28;6851;-73
2022/08/17 02:37:16;;;;;;;;;;;;;;;24.73;45.80;99804.38;5001729;28;7051;-73
2022/08/17 02:39:44;;;;;;;;;;;;;;;24.75;45.52;99789.47;5013919;28;7694;-73
2022/08/17 02:42:11;;;;;;;;;;;;;;;24.76;45.46;99793.81;4983069;28;6990;-73
2022/08/17 02:44:37;;;;;;;;;;;;;;;24.76;45.81;99790.31;5016023;28;7352;-73
2022/08/17 02:47:03;;;;;;;;;;;;;;;24.77;46.04;99789.41;4983509;28;6934;-73
2022/08/17 02:49:29;;;;;;;;;;;;;;;24.78;45.73;99788.59;4978679;28;6792;-73
2022/08/17 02:51:57;;;;;;;;;;;;;;;24.81;45.74;99789.34;4981368;28;7155;-73
2022/08/17 02:54:24;;;;;;;;;;;;;;;24.80;45.41;99790.25;5012957;28;6784;-73
2022/08/17 02:56:50;;;;;;;;;;;;;;;24.82;46.07;99792.84;5012422;28;6784;-73
2022/08/17 02:59:16;;;;;;;;;;;;;;;24.81;45.95;99784.13;5008150;28;7063;-73
2022/08/17 03:01:42;;;;;;;;;;;;;;;24.81;45.99;99786.72;4977974;28;7731;-74
2022/08/17 03:04:07;;;;;;;;;;;;;;;24.81;46.20;99784.13;5013817;28;7829;-74
2022/08/17 03:06:33;;;;;;;;;;;;;;;24.80;46.13;99779.78;4977296;28;7913;-74
2022/08/17 03:08:59;;;;;;;;;;;;;;;24.79;46.32;99777.19;5010436;28;6847;-74
2022/08/17 03:11:24;;;;;;;;;;;;;;;24.79;46.44;99774.59;4980343;28;7161;-74
2022/08/17 03:13:50;;;;;;;;;;;;;;;24.78;45.67;99778.94;5012983;28;6772;-74
2022/08/17 03:16:16;;;;;;;;;;;;;;;24.78;46.38;99781.56;5012224;28;6767;-74
2022/08/17 03:18:41;;;;;;;;;;;;;;;24.77;46.30;99782.44;4988392;28;6931;-74
2022/08/17 03:21:08;;;;;;;;;;;;;;;24.77;46.07;99779.81;4979806;28;6839;-74
2022/08/17 03:23:39;;;;;;;;;;;;;;;24.77;46.58;99782.44;4979739;28;7745;-74
2022/08/17 03:26:08;;;;;;;;;;;;;;;24.75;46.09;99776.38;4978427;28;6808;-74
2022/08/17 03:28:34;;;;;;;;;;;;;;;24.74;46.19;99785.13;5006567;28;6812;-74
2022/08/17 03:30:59;;;;;;;;;;;;;;;24.71;46.17;99779.94;4975373;28;6792;-74
2022/08/17 03:33:25;;;;;;;;;;;;;;;24.70;46.54;99780.81;5013781;28;6788;-74
2022/08/17 03:35:51;;;;;;;;;;;;;;;24.68;46.98;99788.75;4974448;28;6898;-74
2022/08/17 03:38:17;;;;;;;;;;;;;;;24.66;47.09;99776.56;5002223;28;6961;-74
2022/08/17 03:40:45;;;;;;;;;;;;;;;24.66;47.29;99787.03;4981007;28;6792;-74
2022/08/17 03:43:12;;;;;;;;;;;;;;;24.67;46.93;99778.28;4975332;28;6903;-75
2022/08/17 03:57:04;;;;;;;;;;;;;;;24.63;47.57;99794.97;4982594;28;6804;-73
2022/08/17 03:59:31;;;;;;;;;;;;;;;24.62;47.23;99791.47;4979768;28;6976;-73
2022/08/17 04:02:09;;;;;;;;;;;;;;;24.63;47.00;99787.09;4978016;28;7215;-73
2022/08/17 04:04:36;;;;;;;;;;;;;;;24.63;47.79;99790.56;5005776;28;6804;-73
2022/08/17 04:07:03;;;;;;;;;;;;;;;24.64;47.35;99791.44;4974932;28;7066;-74
2022/08/17 04:09:29;;;;;;;;;;;;;;;24.66;47.33;99798.34;4973711;28;7915;-73
2022/08/17 04:11:56;;;;;;;;;;;;;;;24.70;47.76;99804.41;4983373;28;6780;-73
2022/08/17 04:14:22;;;;;;;;;;;;;;;24.72;46.73;99809.63;5020775;28;6997;-73
2022/08/17 04:16:48;;;;;;;;;;;;;;;24.73;47.02;99825.31;4980724;28;6835;-73
2022/08/17 04:19:14;;;;;;;;;;;;;;;24.74;46.83;99841.88;5016960;28;7078;-73
2022/08/17 04:21:40;;;;;;;;;;;;;;;24.76;46.93;99845.34;5014359;28;6868;-73
2022/08/17 04:24:06;;;;;;;;;;;;;;;24.79;47.19;99848.78;4994908;28;7407;-73
2022/08/17 04:26:31;;;;;;;;;;;;;;;24.85;46.94;99847.81;5016760;28;7016;-73
2022/08/17 04:28:57;;;;;;;;;;;;;;;24.92;46.98;99848.56;4975607;28;7226;-73
2022/08/17 04:31:25;;;;;;;;;;;;;;;24.99;46.22;99855.38;4976206;28;6792;-74
2022/08/17 04:33:51;;;;;;;;;;;;;;;25.09;46.62;99853.47;5009933;28;7082;-74
2022/08/17 04:36:17;;;;;;;;;;;;;;;25.20;45.90;99861.94;4982234;28;6768;-74
2022/08/17 04:38:45;;;;;;;;;;;;;;;25.30;45.96;99860.00;4977145;28;6792;-74
2022/08/17 04:43:58;;;;;;;;;;;;;;;25.44;45.76;99853.59;4986548;28;6804;-73
2022/08/17 04:46:32;;;;;;;;;;;;;;;25.51;45.83;99856.06;5026116;28;7146;-73
2022/08/17 04:49:00;;;;;;;;;;;;;;;25.60;45.63;99862.00;5010086;28;6799;-73
2022/08/17 04:51:42;;;;;;;;;;;;;;;25.65;45.12;99862.78;4981747;28;6800;-73
2022/08/17 04:54:13;;;;;;;;;;;;;;;25.73;45.61;99863.41;4979028;28;7023;-73
2022/08/17 04:56:39;;;;;;;;;;;;;;;25.78;45.22;99858.06;4977431;28;6836;-73
2022/08/17 04:59:10;;;;;;;;;;;;;;;25.85;45.31;99870.16;5012076;28;6775;-73
2022/08/17 05:01:40;;;;;;;;;;;;;;;25.88;45.57;99871.84;5014560;28;7864;-73
2022/08/17 05:04:17;;;;;;;;;;;;;;;25.90;44.89;99876.16;5014671;28;6855;-73
2022/08/17 05:06:44;;;;;;;;;;;;;;;25.91;45.51;99880.50;4989766;28;7162;-73
2022/08/17 05:09:09;;;;;;;;;;;;;;;25.92;45.78;99886.59;5002795;28;8546;-73
2022/08/17 05:11:36;;;;;;;;;;;;;;;25.92;45.17;99877.00;5014179;28;6870;-73
2022/08/17 05:14:03;;;;;;;;;;;;;;;25.92;45.13;99876.09;5012529;28;7220;-73
2022/08/17 05:16:29;;;;;;;;;;;;;;;25.93;45.36;99877.88;4985408;28;7244;-73
2022/08/17 05:18:57;;;;;;;;;;;;;;;25.93;45.53;99877.88;5014196;28;6811;-73
2022/08/17 05:21:25;;;;;;;;;;;;;;;25.95;45.59;99880.44;4979818;28;6784;-73
2022/08/17 05:23:52;;;;;;;;;;;;;;;25.93;45.57;99881.34;4979344;28;6804;-73
2022/08/17 05:26:20;;;;;;;;;;;;;;;25.95;45.63;99880.44;4979173;28;6989;-73
2022/08/17 05:28:47;;;;;;;;;;;;;;;25.96;45.58;99883.03;4975886;28;6804;-74
2022/08/17 05:31:13;;;;;;;;;;;;;;;25.98;45.61;99886.47;5004702;28;6807;-73
2022/08/17 05:33:41;;;;;;;;;;;;;;;25.98;45.97;99889.09;5011925;28;6787;-73
2022/08/17 05:36:11;;;;;;;;;;;;;;;26.00;45.39;99889.91;4978929;28;7939;-73
2022/08/17 05:38:37;;;;;;;;;;;;;;;26.00;45.45;99891.69;4973801;28;6807;-73
2022/08/17 05:41:06;;;;;;;;;;;;;;;26.01;45.91;99890.78;5015562;28;6998;-73
2022/08/17 05:43:36;;;;;;;;;;;;;;;26.03;45.65;99889.00;4958071;28;7599;-74
2022/08/17 05:46:21;;;;;;;;;;;;;;;26.06;45.69;99886.28;5011830;28;6804;-73
2022/08/17 05:48:51;;;;;;;;;;;;;;;26.09;45.44;99894.09;4979864;28;6812;-73
2022/08/17 05:51:43;;;;;;;;;;;;;;;26.12;45.89;99891.38;4980662;28;7168;-73
2022/08/17 05:54:09;;;;;;;;;;;;;;;26.13;45.56;99879.97;5014318;28;6979;-73
2022/08/17 05:57:15;;;;;;;;;;;;;;;26.15;45.57;99886.06;4983113;28;7276;-73
2022/08/17 06:00:09;;;;;;;;;;;;;;;26.16;45.58;99885.16;4982390;28;6808;-73
2022/08/17 06:03:22;;;;;;;;;;;;;;;26.20;45.80;99893.84;4977987;28;6808;-73
2022/08/17 06:05:58;;;;;;;;;;;;;;;26.24;45.55;99897.25;4981509;28;7873;-73
2022/08/17 06:08:33;;;;;;;;;;;;;;;26.28;46.08;99905.03;4978714;28;6930;-73
2022/08/17 06:11:18;;;;;;;;;;;;;;;26.34;45.82;99914.50;5011033;28;7228;-73
2022/08/17 06:14:34;;;;;;;;;;;;;;;26.39;45.48;99907.38;5010439;28;6942;-73
2022/08/17 06:17:08;;;;;;;;;;;;;;;26.40;45.65;99903.84;4982097;28;7216;-73
2022/08/17 06:20:04;;;;;;;;;;;;;;;26.41;46.05;99896.81;4982999;28;6800;-73
2022/08/17 06:22:42;;;;;;;;;;;;;;;26.30;46.06;99899.75;5006359;28;7367;-72
2022/08/17 06:25:18;;;;;;;;;;;;;;;26.15;46.67;99893.94;4979056;28;6812;-72
2022/08/17 06:27:56;;;;;;;;;;;;;;;26.00;47.07;99892.53;4978024;28;7003;-72
2022/08/17 06:30:31;;;;;;;;;;;;;;;25.83;47.98;99890.31;4976679;28;7303;-71
2022/08/17 06:33:08;;;;;;;;;;;;;;;25.68;48.24;99895.91;4980575;28;6856;-71
2022/08/17 06:36:22;;;;;;;;;;;;;;;25.55;48.61;99911.94;4982215;28;7162;-71
2022/08/17 06:38:54;;;;;;;;;;;;;;;25.45;49.33;99915.63;4960165;28;7151;-72
2022/08/17 06:42:04;;;;;;;;;;;;;;;25.39;50.10;99919.25;5008116;28;6792;-72
2022/08/17 06:44:53;;;;;;;;;;;;;;;25.36;50.24;99919.34;4980432;28;6816;-72
2022/08/17 06:47:46;;;;;;;;;;;;;;;25.35;50.57;99921.06;5004730;28;7251;-72
2022/08/17 06:50:27;;;;;;;;;;;;;;;25.38;50.65;99928.88;4963632;28;7010;-72
2022/08/17 06:53:03;;;;;;;;;;;;;;;25.38;51.21;99939.34;4975992;28;6891;-72
2022/08/17 06:55:56;;;;;;;;;;;;;;;25.42;51.31;99941.94;4984778;28;6820;-72
2022/08/17 06:58:26;;;;;;;;;;;;;;;25.50;52.39;99953.16;5004111;28;6816;-72
2022/08/17 07:00:57;;;;;;;;;;;;;;;25.59;52.62;99942.47;4980789;28;7920;-72
2022/08/17 07:03:40;;;;;;;;;;;;;;;25.73;52.73;99933.44;5009243;28;6895;-72
2022/08/17 07:06:17;;;;;;;;;;;;;;;25.85;52.00;99927.91;4983457;28;6808;-73
2022/08/17 07:09:15;;;;;;;;;;;;;;;25.95;51.46;99930.31;5007850;28;6808;-73
2022/08/17 07:12:17;;;;;;;;;;;;;;;26.01;51.94;99924.94;4982024;28;6852;-73
2022/08/17 07:14:51;;;;;;;;;;;;;;;26.10;52.09;99932.56;4981665;28;6823;-73
2022/08/17 07:17:21;;;;;;;;;;;;;;;26.20;52.07;99942.00;4978486;28;7093;-73
2022/08/17 07:19:55;;;;;;;;;;;;;;;26.30;52.29;99937.34;5012117;28;6969;-73
2022/08/17 07:22:50;;;;;;;;;;;;;;;26.40;51.63;99939.75;4965476;28;6993;-73
2022/08/17 07:25:18;;;;;;;;;;;;;;;26.45;51.31;99954.50;5009409;28;7192;-73
2022/08/17 07:27:54;;;;;;;;;;;;;;;26.51;50.82;99947.38;5006169;28;6800;-74
2022/08/17 07:30:23;;;;;;;;;;;;;;;26.56;50.74;99948.13;5015011;28;7022;-74
2022/08/17 07:32:58;;;;;;;;;;;;;;;26.60;50.42;99945.38;4998516;28;7056;-74
2022/08/17 07:35:27;;;;;;;;;;;;;;;26.67;50.36;99937.31;4987935;28;6875;-74
2022/08/17 07:38:14;;;;;;;;;;;;;;;26.74;49.81;99944.16;4981663;28;6784;-74
2022/08/17 07:40:45;;;;;;;;;;;;;;;26.80;49.81;99951.00;4981555;28;6899;-74
2022/08/17 07:43:20;;;;;;;;;;;;;;;26.87;49.86;99952.59;5010572;28;6784;-74
2022/08/17 07:48:54;;;;;;;;;;;;;;;26.95;49.21;99958.53;4986680;28;6784;-74
2022/08/17 07:51:38;;;;;;;;;;;;;;;27.05;49.28;99963.53;5013926;28;6800;-74
2022/08/17 07:54:26;;;;;;;;;;;;;;;27.12;49.12;99965.94;5030180;28;7005;-74
2022/08/17 07:57:07;;;;;;;;;;;;;;;27.26;48.75;99964.69;4973613;28;7002;-74
2022/08/17 07:59:59;;;;;;;;;;;;;;;27.35;48.28;99959.16;5010576;28;7218;-74
2022/08/17 08:02:39;;;;;;;;;;;;;;;27.51;48.30;99962.19;5004409;28;6816;-74
2022/08/17 08:05:26;;;;;;;;;;;;;;;27.64;48.02;99962.72;4984336;28;7189;-74
2022/08/17 08:08:04;;;;;;;;;;;;;;;27.79;47.55;99965.81;4986351;28;6815;-74
2022/08/17 08:10:42;;;;;;;;;;;;;;;27.89;47.20;99974.28;4983080;28;6868;-74
2022/08/17 08:13:41;;;;;;;;;;;;;;;27.94;46.44;99969.75;4982849;28;7003;-74
2022/08/17 08:16:28;;;;;;;;;;;;;;;27.96;46.78;99989.88;4983870;28;7705;-74
2022/08/17 08:18:58;;;;;;;;;;;;;;;27.92;45.93;99993.50;4982286;28;7216;-74
2022/08/17 08:21:43;;;;;;;;;;;;;;;27.85;46.02;99994.56;5002103;28;7117;-74
2022/08/17 08:24:37;;;;;;;;;;;;;;;27.74;45.75;100000.19;4984643;28;7076;-74
2022/08/17 08:27:17;;;;;;;;;;;;;;;27.66;46.20;100003.03;4981214;28;7873;-74
2022/08/17 08:29:58;;;;;;;;;;;;;;;27.58;46.00;100020.84;4976328;28;6969;-74
2022/08/17 08:33:11;;;;;;;;;;;;;;;27.44;46.21;100029.09;5011357;28;7239;-74
2022/08/17 08:36:09;;;;;;;;;;;;;;;27.21;46.29;100027.94;4983773;28;7129;-74
2022/08/17 08:39:03;;;;;;;;;;;;;;;26.95;46.82;100023.38;5008374;28;6991;-74
2022/08/17 08:41:51;;;;;;;;;;;;;;;26.68;48.03;100024.03;4984100;28;6812;-74
2022/08/17 08:44:58;;;;;;;;;;;;;;;26.50;48.98;100045.50;4984842;28;7023;-73
2022/08/17 08:48:03;;;;;;;;;;;;;;;26.31;50.47;100045.94;4981911;28;6816;-73
2022/08/17 08:51:09;;;;;;;;;;;;;;;26.24;51.29;100049.59;4985319;28;6820;-73
2022/08/17 08:54:02;;;;;;;;;;;;;;;26.25;51.71;100051.31;4975926;28;6876;-73
2022/08/17 08:57:04;;;;;;;;;;;;;;;26.31;51.72;100046.78;4982380;28;6945;-73
2022/08/17 08:59:52;;;;;;;;;;;;;;;26.37;51.54;100040.53;4976661;28;6976;-73
2022/08/17 09:03:03;;;;;;;;;;;;;;;26.38;51.56;100041.38;5012859;28;7143;-73
2022/08/17 09:05:54;;;;;;;;;;;;;;;26.44;51.52;100041.25;4971248;28;6987;-74
2022/08/17 09:08:57;;;;;;;;;;;;;;;26.53;51.85;100037.53;4983369;28;7586;-73
2022/08/17 09:11:55;;;;;;;;;;;;;;;26.62;51.61;100039.94;4973986;28;6803;-73
2022/08/17 09:14:40;;;;;;;;;;;;;;;26.60;51.57;100036.50;4977751;28;7003;-74
2022/08/17 09:17:24;;;;;;;;;;;;;;;26.52;51.63;100039.31;5012408;28;6800;-74
2022/08/17 09:20:03;;;;;;;;;;;;;;;26.36;51.73;100048.44;4973623;28;6820;-73
2022/08/17 09:22:43;;;;;;;;;;;;;;;26.17;52.07;100057.59;4991537;28;6863;-73
2022/08/17 09:25:26;;;;;;;;;;;;;;;26.03;52.60;100063.13;4978426;28;6815;-73
2022/08/17 09:28:15;;;;;;;;;;;;;;;25.90;52.73;100082.66;5008307;28;6819;-73
2022/08/17 09:31:01;;;;;;;;;;;;;;;25.72;53.22;100082.13;4988333;28;9317;-73
2022/08/17 09:33:32;;;;;;;;;;;;;;;25.56;53.67;100078.94;4983539;28;7037;-73
2022/08/17 09:36:29;;;;;;;;;;;;;;;25.40;53.33;100078.34;5014332;28;6849;-73
2022/08/17 09:39:12;;;;;;;;;;;;;;;25.22;54.05;100069.06;4975658;28;6812;-73
2022/08/17 09:41:57;;;;;;;;;;;;;;;25.07;54.26;100065.81;5011605;28;7263;-73
2022/08/17 09:44:54;;;;;;;;;;;;;;;24.94;55.07;100067.78;4997395;28;8079;-73
2022/08/17 09:47:44;;;;;;;;;;;;;;;24.82;55.33;100076.75;5013755;28;7169;-73
2022/08/17 09:50:20;;;;;;;;;;;;;;;24.76;55.03;100071.56;4979160;28;6880;-74
2022/08/17 09:52:52;;;;;;;;;;;;;;;24.74;55.22;100069.84;5010563;28;7169;-74
2022/08/17 09:55:23;;;;;;;;;;;;;;;24.72;55.78;100080.34;5011064;28;8181;-74
2022/08/17 09:58:12;;;;;;;;;;;;;;;24.69;55.81;100080.41;4993132;28;7140;-73
2022/08/17 10:00:56;;;;;;;;;;;;;;;24.68;56.38;100073.44;4974338;28;7156;-73
2022/08/17 10:03:47;;;;;;;;;;;;;;;24.76;56.54;100079.41;5012300;28;7178;-73
2022/08/17 10:06:32;;;;;;;;;;;;;;;24.84;57.31;100083.72;4981415;28;6991;-73
2022/08/17 10:09:17;;;;;;;;;;;;;;;24.85;56.96;100082.81;5010321;28;6930;-73
2022/08/17 10:12:15;;;;;;;;;;;;;;;24.84;56.71;100081.09;4973728;28;6816;-73
2022/08/17 10:15:03;;;;;;;;;;;;;;;24.78;56.97;100089.91;4978811;28;6955;-73
2022/08/17 10:17:42;;;;;;;;;;;;;;;24.74;56.88;100082.94;5001712;28;6807;-73
2022/08/17 10:20:25;;;;;;;;;;;;;;;24.71;57.74;100089.09;5007957;28;6800;-73
2022/08/17 10:26:13;;;;;;;;;;;;;;;24.52;57.36;100089.38;5006550;28;6812;-73
2022/08/17 10:28:59;;;;;;;;;;;;;;;24.43;58.15;100075.56;5004563;28;7936;-73
2022/08/17 10:31:38;;;;;;;;;;;;;;;24.40;57.74;100065.97;4998873;28;7078;-73
2022/08/17 10:34:43;;;;;;;;;;;;;;;24.43;58.47;100049.38;5005965;28;6996;-73
2022/08/17 10:37:45;;;;;;;;;;;;;;;24.44;58.41;100044.13;4979064;28;6824;-73
2022/08/17 10:40:44;;;;;;;;;;;;;;;24.41;58.74;100052.00;4978445;28;7333;-73
2022/08/17 10:43:22;;;;;;;;;;;;;;;24.45;58.84;100058.94;4979834;28;7352;-73
2022/08/17 10:46:20;;;;;;;;;;;;;;;24.60;59.28;100057.84;4978346;28;7103;-73
2022/08/17 10:49:19;;;;;;;;;;;;;;;24.83;60.56;100064.47;4981515;28;7072;-73
2022/08/17 10:51:52;;;;;;;;;;;;;;;25.03;59.62;100058.91;4977131;28;7062;-73
2022/08/17 10:54:23;;;;;;;;;;;;;;;25.18;58.61;100065.63;4977671;28;6800;-73
2022/08/17 10:56:53;;;;;;;;;;;;;;;25.28;58.61;100066.31;4978267;28;6916;-73
2022/08/17 10:59:33;;;;;;;;;;;;;;;25.35;58.23;100054.84;5006732;28;6839;-73
2022/08/17 11:02:24;;;;;;;;;;;;;;;25.37;57.70;100055.66;4980143;28;6975;-73
2022/08/17 11:05:22;;;;;;;;;;;;;;;25.40;57.55;100056.50;4981472;28;6836;-73
2022/08/17 11:08:29;;;;;;;;;;;;;;;25.39;57.25;100055.66;4975658;28;6799;-72
2022/08/17 11:11:10;;;;;;;;;;;;;;;25.38;57.33;100057.38;4979271;28;6967;-72
2022/08/17 11:14:12;;;;;;;;;;;;;;;25.45;57.75;100049.41;4977220;28;7133;-72
2022/08/17 11:17:28;;;;;;;;;;;;;;;25.57;57.60;100056.22;4977566;28;8098;-73
2022/08/17 11:20:40;;;;;;;;;;;;;;;25.74;57.58;100055.88;4974916;28;6962;-72
2022/08/17 11:23:47;;;;;;;;;;;;;;;26.00;57.75;100062.34;4976260;28;7673;-72
2022/08/17 11:26:33;;;;;;;;;;;;;;;26.26;57.20;100071.41;4976063;28;7662;-73
2022/08/17 11:29:08;;;;;;;;;;;;;;;26.43;56.40;100071.06;5012780;28;7232;-73
2022/08/17 11:31:33;;;;;;;;;;;;;;;26.56;55.70;100082.16;4978685;28;6963;-73
2022/08/17 11:34:25;;;;;;;;;;;;;;;26.63;55.60;100073.19;4983491;28;7266;-72
2022/08/17 11:37:26;;;;;;;;;;;;;;;26.71;55.29;100081.75;4987214;28;6867;-72
2022/08/17 11:40:10;;;;;;;;;;;;;;;26.70;54.69;100079.16;4986084;28;6828;-72
2022/08/17 11:43:12;;;;;;;;;;;;;;;26.62;54.33;100080.22;4983449;28;6923;-72
2022/08/17 11:46:01;;;;;;;;;;;;;;;26.48;54.19;100080.56;4982838;28;7216;-72
2022/08/17 11:51:59;;;;;;;;;;;;;;;26.25;54.46;100088.06;4982625;28;6800;-72
2022/08/17 11:54:31;;;;;;;;;;;;;;;26.16;54.35;100089.13;4984457;28;6853;-72
2022/08/17 11:57:01;;;;;;;;;;;;;;;26.08;54.51;100097.19;5011512;28;7258;-73
2022/08/17 11:59:31;;;;;;;;;;;;;;;26.02;54.52;100102.53;4983355;28;6888;-72
2022/08/17 12:02:01;;;;;;;;;;;;;;;25.96;54.91;100097.41;4978932;28;6963;-72
2022/08/17 12:04:34;;;;;;;;;;;;;;;25.95;54.89;100101.81;5012115;28;6863;-72
2022/08/17 12:07:18;;;;;;;;;;;;;;;25.95;55.58;100107.06;4983180;28;6800;-72
2022/08/17 12:09:49;;;;;;;;;;;;;;;25.99;55.71;100107.88;4979496;28;6879;-72
2022/08/17 12:12:34;;;;;;;;;;;;;;;26.06;55.54;100109.44;4999738;28;7230;-73
2022/08/17 12:15:06;;;;;;;;;;;;;;;26.10;55.50;100102.38;4994892;28;11642;-72
2022/08/17 12:17:34;;;;;;;;;;;;;;;26.17;55.59;100118.00;4991558;28;7331;-72
2022/08/17 12:20:26;;;;;;;;;;;;;;;26.24;55.27;100112.63;4977174;28;6812;-72
2022/08/17 12:23:16;;;;;;;;;;;;;;;26.20;55.04;100104.81;5007936;28;7096;-72
2022/08/17 12:25:48;;;;;;;;;;;;;;;26.15;55.00;100114.50;4975299;28;6816;-72
2022/08/17 12:28:37;;;;;;;;;;;;;;;26.10;55.44;100112.88;5010469;28;7007;-73
2022/08/17 12:31:16;;;;;;;;;;;;;;;26.06;55.07;100110.31;4978728;28;7045;-73
2022/08/17 12:33:46;;;;;;;;;;;;;;;26.04;54.89;100111.25;4976989;28;7146;-72
2022/08/17 12:36:23;;;;;;;;;;;;;;;25.98;55.01;100114.00;5014350;28;6830;-72
2022/08/17 12:39:03;;;;;;;;;;;;;;;25.95;54.93;100116.69;5016702;28;7159;-72
2022/08/17 12:41:45;;;;;;;;;;;;;;;25.93;55.63;100114.97;5010323;28;6820;-72
2022/08/17 12:44:30;;;;;;;;;;;;;;;25.96;55.59;100118.41;5007694;28;7244;-72
2022/08/17 12:47:03;;;;;;;;;;;;;;;26.03;56.37;100113.03;4982271;28;6808;-72
2022/08/17 12:49:41;;;;;;;;;;;;;;;26.11;55.44;100104.97;4981428;28;6811;-72
2022/08/17 12:52:13;;;;;;;;;;;;;;;26.17;55.35;100101.34;5010279;28;6804;-72
2022/08/17 12:55:19;;;;;;;;;;;;;;;26.20;55.46;100096.06;4986002;28;6856;-72
2022/08/17 12:57:50;;;;;;;;;;;;;;;26.20;55.08;100099.56;4988079;28;7092;-72
2022/08/17 13:00:21;;;;;;;;;;;;;;;26.22;55.37;100102.16;5007143;28;6871;-73
2022/08/17 13:03:16;;;;;;;;;;;;;;;26.22;55.36;100099.53;4984984;28;6956;-73
2022/08/17 13:06:13;;;;;;;;;;;;;;;26.22;55.22;100094.28;5001555;28;7151;-72
2022/08/17 13:08:44;;;;;;;;;;;;;;;26.22;55.08;100085.53;4983762;28;6820;-72
2022/08/17 13:11:12;;;;;;;;;;;;;;;26.24;55.29;100091.59;4993212;28;7165;-73
2022/08/17 13:13:43;;;;;;;;;;;;;;;26.24;55.24;100099.47;4980459;28;6849;-72
2022/08/17 13:16:13;;;;;;;;;;;;;;;26.21;55.50;100092.53;4978795;28;7013;-72
2022/08/17 13:18:38;;;;;;;;;;;;;;;26.21;55.23;100089.91;4986470;28;6792;-72
2022/08/17 13:21:15;;;;;;;;;;;;;;;26.22;55.38;100083.78;4977551;28;7134;-72
2022/08/17 13:23:52;;;;;;;;;;;;;;;26.24;55.62;100091.59;4984801;28;6820;-72
2022/08/17 13:26:30;;;;;;;;;;;;;;;26.28;55.67;100088.88;5012308;28;7383;-73
2022/08/17 13:28:56;;;;;;;;;;;;;;;26.30;55.73;100087.06;4998599;28;7126;-73
2022/08/17 13:31:35;;;;;;;;;;;;;;;26.37;55.76;100097.44;4977267;28;6816;-73
2022/08/17 13:34:17;;;;;;;;;;;;;;;26.43;55.83;100087.66;5012456;28;6860;-73
2022/08/17 13:36:45;;;;;;;;;;;;;;;26.53;55.90;100087.44;5008445;28;7030;-73
2022/08/17 13:39:21;;;;;;;;;;;;;;;26.69;56.27;100086.19;5010612;28;6784;-73
2022/08/17 13:41:50;;;;;;;;;;;;;;;26.88;56.38;100080.53;5004667;28;7374;-72
2022/08/17 13:44:33;;;;;;;;;;;;;;;27.13;56.32;100083.38;4974590;28;7183;-73
2022/08/17 13:47:01;;;;;;;;;;;;;;;27.48;56.39;100082.50;4975782;28;6998;-73
2022/08/17 13:49:29;;;;;;;;;;;;;;;28.08;56.25;100078.16;5011176;28;7061;-73
2022/08/17 13:51:55;;;;;;;;;;;;;;;28.76;55.22;100074.31;4982614;28;6820;-72
2022/08/17 13:54:35;;;;;;;;;;;;;;;29.38;53.49;100072.25;4974485;28;6800;-72
2022/08/17 13:57:22;;;;;;;;;;;;;;;30.20;51.25;100069.25;5010138;28;6812;-73
2022/08/17 14:00:04;;;;;;;;;;;;;;;30.76;49.68;100067.06;4979537;28;7240;-72
2022/08/17 14:02:30;;;;;;;;;;;;;;;31.29;48.78;100066.59;5010055;28;6819;-73
2022/08/17 14:04:56;;;;;;;;;;;;;;;31.79;47.31;100070.56;4977711;28;7357;-73
2022/08/17 14:07:32;;;;;;;;;;;;;;;32.46;46.82;100070.13;5010870;28;6799;-73
2022/08/17 14:10:11;;;;;;;;;;;;;;;33.13;44.73;100065.94;4977414;28;6942;-73